createdAt,value
2018-04-30T00:00:26.929Z,17.17
2018-04-30T00:02:53.194Z,17.30
2018-04-30T00:05:19.512Z,15.07
2018-04-30T00:07:45.764Z,17.87
2018-04-30T00:10:12.037Z,15.70
2018-04-30T00:12:38.263Z,15.67
2018-04-30T00:15:04.546Z,16.50
2018-04-30T00:17:30.817Z,15.07
2018-04-30T00:19:57.117Z,13.93
2018-04-30T00:22:23.442Z,16.00
2018-04-30T00:24:49.800Z,17.93
2018-04-30T00:27:16.065Z,16.30
2018-04-30T00:29:42.353Z,14.30
2018-04-30T00:32:08.741Z,14.87
2018-04-30T00:34:35.783Z,17.80
2018-04-30T00:37:02.833Z,16.67
2018-04-30T00:39:29.094Z,14.97
2018-04-30T00:41:55.344Z,15.50
2018-04-30T00:44:21.665Z,16.27
2018-04-30T00:46:47.968Z,14.50
2018-04-30T00:49:14.218Z,15.83
2018-04-30T00:51:41.272Z,15.67
2018-04-30T00:54:07.552Z,15.63
2018-04-30T00:56:34.604Z,15.33
2018-04-30T00:59:01.643Z,15.27
2018-04-30T01:01:28.022Z,13.83
2018-04-30T01:03:54.312Z,15.90
2018-04-30T01:06:20.655Z,13.27
2018-04-30T01:08:46.940Z,15.67
2018-04-30T01:11:13.236Z,15.07
2018-04-30T01:13:39.529Z,14.23
2018-04-30T01:16:05.845Z,14.93
2018-04-30T01:18:32.149Z,13.27
2018-04-30T01:20:58.422Z,13.33
2018-04-30T01:23:24.725Z,14.53
2018-04-30T01:25:51.004Z,15.53
2018-04-30T01:28:17.265Z,15.00
2018-04-30T01:30:44.255Z,15.13
2018-04-30T01:33:10.612Z,13.40
2018-04-30T01:35:36.872Z,15.37
2018-04-30T01:38:03.865Z,15.20
2018-04-30T01:40:30.889Z,12.63
2018-04-30T01:42:57.235Z,14.90
2018-04-30T01:45:23.508Z,14.23
2018-04-30T01:47:49.800Z,14.60
2018-04-30T01:50:16.188Z,15.20
2018-04-30T01:52:42.456Z,14.00
2018-04-30T01:55:09.429Z,15.37
2018-04-30T01:57:35.701Z,13.90
2018-04-30T02:00:02.035Z,14.33
2018-04-30T02:02:29.111Z,15.10
2018-04-30T02:04:55.404Z,16.40
2018-04-30T02:07:21.759Z,14.83
2018-04-30T02:09:48.106Z,14.80
2018-04-30T02:12:14.436Z,14.67
2018-04-30T02:14:40.705Z,15.37
2018-04-30T02:17:06.935Z,14.63
2018-04-30T02:19:33.228Z,13.67
2018-04-30T02:21:59.551Z,14.37
2018-04-30T02:24:25.825Z,14.77
2018-04-30T02:26:52.164Z,18.10
2018-04-30T02:29:19.233Z,16.07
2018-04-30T02:31:46.284Z,15.73
2018-04-30T02:34:12.586Z,21.23
2018-04-30T02:36:38.874Z,13.97
2018-04-30T02:39:05.973Z,14.90
2018-04-30T02:41:32.323Z,15.00
2018-04-30T02:43:58.674Z,13.27
2018-04-30T02:46:25.025Z,15.53
2018-04-30T02:48:51.305Z,14.23
2018-04-30T02:51:18.368Z,14.43
2018-04-30T02:53:45.371Z,16.00
2018-04-30T02:56:12.478Z,13.67
2018-04-30T02:58:38.780Z,17.27
2018-04-30T03:01:05.112Z,16.83
2018-04-30T03:03:31.455Z,14.63
2018-04-30T03:05:57.769Z,14.63
2018-04-30T03:08:24.070Z,13.97
2018-04-30T03:10:50.388Z,15.10
2018-04-30T03:13:16.741Z,16.53
2018-04-30T03:15:43.033Z,13.87
2018-04-30T03:18:10.043Z,16.60
2018-04-30T03:20:36.411Z,13.47
2018-04-30T03:23:02.757Z,13.40
2018-04-30T03:25:29.039Z,14.23
2018-04-30T03:27:55.385Z,13.63
2018-04-30T03:30:22.305Z,14.77
2018-04-30T03:32:48.542Z,16.97
2018-04-30T03:35:14.857Z,16.03
2018-04-30T03:37:41.174Z,19.00
2018-04-30T03:40:07.519Z,12.80
2018-04-30T03:42:33.862Z,16.20
2018-04-30T03:45:00.118Z,17.40
2018-04-30T03:47:26.426Z,13.90
2018-04-30T03:49:52.705Z,11.73
2018-04-30T03:52:18.998Z,14.80
2018-04-30T03:54:46.030Z,14.90
2018-04-30T03:57:12.370Z,11.97
2018-04-30T03:59:39.604Z,12.97
2018-04-30T04:02:18.034Z,14.10
2018-04-30T04:04:56.482Z,15.17
2018-04-30T04:07:22.783Z,13.63
2018-04-30T04:09:49.832Z,15.57
2018-04-30T04:12:16.828Z,12.03
2018-04-30T04:14:43.217Z,12.13
2018-04-30T04:17:09.488Z,14.27
2018-04-30T04:19:35.758Z,17.50
2018-04-30T04:22:02.063Z,15.37
2018-04-30T04:24:29.100Z,15.73
2018-04-30T04:26:55.728Z,14.40
2018-04-30T04:29:22.087Z,13.30
2018-04-30T04:31:48.340Z,14.03
2018-04-30T04:34:14.671Z,14.77
2018-04-30T04:36:40.972Z,13.07
2018-04-30T04:39:07.369Z,11.23
2018-04-30T04:41:33.823Z,15.93
2018-04-30T04:44:00.155Z,16.53
2018-04-30T04:46:27.303Z,17.27
2018-04-30T04:48:53.609Z,11.17
2018-04-30T04:51:19.988Z,12.63
2018-04-30T04:53:46.275Z,14.87
2018-04-30T04:56:12.583Z,11.40
2018-04-30T04:58:38.906Z,13.30
2018-04-30T05:01:05.188Z,15.50
2018-04-30T05:03:31.466Z,16.63
2018-04-30T05:05:57.834Z,8.40
2018-04-30T05:08:24.923Z,10.40
2018-04-30T05:10:52.125Z,15.60
2018-04-30T05:13:18.483Z,14.57
2018-04-30T05:15:45.567Z,10.33
2018-04-30T05:18:12.007Z,9.93
2018-04-30T05:20:38.843Z,13.50
2018-04-30T05:23:05.245Z,11.47
2018-04-30T05:25:32.372Z,16.93
2018-04-30T05:27:58.909Z,13.27
2018-04-30T05:30:25.222Z,16.30
2018-04-30T05:32:51.496Z,10.13
2018-04-30T05:35:17.991Z,10.80
2018-04-30T05:37:44.242Z,11.10
2018-04-30T05:40:10.542Z,9.33
2018-04-30T05:42:36.801Z,12.80
2018-04-30T05:45:03.901Z,8.47
2018-04-30T05:47:30.919Z,6.73
2018-04-30T05:49:57.198Z,9.93
2018-04-30T05:52:23.508Z,7.43
2018-04-30T05:54:50.508Z,5.67
2018-04-30T05:57:16.972Z,7.73
2018-04-30T05:59:44.109Z,7.83
2018-04-30T06:02:10.392Z,8.83
2018-04-30T06:04:36.744Z,10.90
2018-04-30T06:07:03.060Z,4.40
2018-04-30T06:09:29.382Z,5.40
2018-04-30T06:11:55.719Z,3.80
2018-04-30T06:14:22.078Z,5.37
2018-04-30T06:16:48.413Z,5.37
2018-04-30T06:19:14.694Z,6.50
2018-04-30T06:21:41.264Z,6.53
2018-04-30T06:24:08.352Z,8.57
2018-04-30T06:26:34.694Z,4.20
2018-04-30T06:29:00.951Z,4.10
2018-04-30T06:31:28.004Z,5.00
2018-04-30T06:33:54.310Z,6.73
2018-04-30T06:36:21.313Z,3.77
2018-04-30T06:38:47.891Z,4.23
2018-04-30T06:41:14.204Z,2.60
2018-04-30T06:43:40.564Z,2.60
2018-04-30T06:46:08.760Z,6.07
2018-04-30T06:48:35.067Z,5.20
2018-04-30T06:51:01.630Z,4.30
2018-04-30T06:53:27.957Z,5.67
2018-04-30T06:55:55.169Z,1.73
2018-04-30T06:58:21.476Z,4.47
2018-04-30T07:00:47.842Z,4.53
2018-04-30T07:03:14.145Z,3.87
2018-04-30T07:05:40.434Z,2.13
2018-04-30T07:08:06.791Z,8.67
2018-04-30T07:10:33.091Z,2.67
2018-04-30T07:12:59.384Z,3.23
2018-04-30T07:15:25.859Z,2.10
2018-04-30T07:17:52.381Z,5.47
2018-04-30T07:20:18.705Z,4.67
2018-04-30T07:22:45.011Z,4.30
2018-04-30T07:25:11.365Z,1.70
2018-04-30T07:27:37.701Z,4.40
2018-04-30T07:30:03.950Z,1.70
2018-04-30T07:32:30.325Z,0.97
2018-04-30T07:34:56.575Z,2.40
2018-04-30T07:37:22.834Z,2.67
2018-04-30T07:39:49.885Z,3.30
2018-04-30T07:42:17.030Z,3.83
2018-04-30T07:44:43.375Z,5.47
2018-04-30T07:47:10.539Z,6.00
2018-04-30T07:49:36.834Z,3.97
2018-04-30T07:52:03.942Z,3.13
2018-04-30T07:54:30.273Z,3.47
2018-04-30T07:56:56.649Z,1.77
2018-04-30T07:59:23.656Z,2.57
2018-04-30T08:01:50.046Z,3.90
2018-04-30T08:04:17.186Z,1.97
2018-04-30T08:06:43.449Z,2.17
2018-04-30T08:09:09.774Z,3.50
2018-04-30T08:11:36.026Z,4.17
2018-04-30T08:14:03.103Z,1.90
2018-04-30T08:16:30.211Z,1.17
2018-04-30T08:18:56.495Z,3.63
2018-04-30T08:21:22.835Z,1.17
2018-04-30T08:23:49.250Z,5.57
2018-04-30T08:26:15.565Z,4.10
2018-04-30T08:28:41.827Z,2.90
2018-04-30T08:31:08.157Z,2.50
2018-04-30T08:33:34.469Z,5.73
2018-04-30T08:36:00.862Z,1.70
2018-04-30T08:38:27.221Z,3.10
2018-04-30T08:40:53.586Z,1.77
2018-04-30T08:43:19.918Z,1.00
2018-04-30T08:45:46.305Z,2.30
2018-04-30T08:48:12.663Z,2.60
2018-04-30T08:50:38.929Z,1.87
2018-04-30T08:53:05.385Z,3.87
2018-04-30T08:55:31.802Z,2.67
2018-04-30T08:57:58.921Z,2.90
2018-04-30T09:00:25.995Z,5.97
2018-04-30T09:02:52.417Z,1.53
2018-04-30T09:05:19.607Z,6.77
2018-04-30T09:07:46.002Z,3.73
2018-04-30T09:10:12.369Z,1.50
2018-04-30T09:12:39.490Z,2.33
2018-04-30T09:15:06.601Z,1.80
2018-04-30T09:17:32.870Z,1.23
2018-04-30T09:19:59.136Z,3.00
2018-04-30T09:22:25.488Z,2.13
2018-04-30T09:24:51.854Z,0.80
2018-04-30T09:27:19.325Z,2.27
2018-04-30T09:29:46.676Z,0.67
2018-04-30T09:32:13.034Z,4.07
2018-04-30T09:34:39.322Z,0.97
2018-04-30T09:37:05.577Z,4.27
2018-04-30T09:39:31.859Z,1.20
2018-04-30T09:41:58.148Z,4.40
2018-04-30T09:44:24.467Z,0.60
2018-04-30T09:46:51.487Z,2.60
2018-04-30T09:49:17.768Z,1.40
2018-04-30T09:51:44.058Z,1.40
2018-04-30T09:54:10.370Z,1.80
2018-04-30T09:56:36.930Z,1.57
2018-04-30T09:59:03.356Z,0.77
2018-04-30T10:01:29.696Z,1.73
2018-04-30T10:03:56.012Z,1.37
2018-04-30T10:06:22.769Z,2.63
2018-04-30T10:08:49.262Z,2.23
2018-04-30T10:11:15.564Z,1.80
2018-04-30T10:13:41.955Z,1.57
2018-04-30T10:16:08.250Z,3.57
2018-04-30T10:18:35.369Z,1.77
2018-04-30T10:21:02.887Z,2.13
2018-04-30T10:23:30.120Z,3.13
2018-04-30T10:25:56.416Z,3.30
2018-04-30T10:28:22.738Z,1.87
2018-04-30T10:30:49.752Z,2.43
2018-04-30T10:33:16.179Z,3.53
2018-04-30T10:35:42.539Z,1.10
2018-04-30T10:38:08.999Z,2.70
2018-04-30T10:40:36.053Z,0.87
2018-04-30T10:43:02.331Z,1.40
2018-04-30T10:45:29.552Z,1.33
2018-04-30T10:47:56.727Z,2.10
2018-04-30T10:50:23.200Z,1.80
2018-04-30T10:52:50.618Z,2.07
2018-04-30T10:55:17.117Z,4.57
2018-04-30T10:57:44.157Z,3.80
2018-04-30T11:00:10.742Z,3.83
2018-04-30T11:02:37.176Z,2.13
2018-04-30T11:05:03.486Z,8.10
2018-04-30T11:07:30.220Z,3.27
2018-04-30T11:09:56.699Z,2.93
2018-04-30T11:12:23.221Z,2.03
2018-04-30T11:14:49.577Z,1.43
2018-04-30T11:17:17.663Z,4.00
2018-04-30T11:19:45.229Z,4.93
2018-04-30T11:22:11.583Z,6.00
2018-04-30T11:24:38.644Z,2.33
2018-04-30T11:27:04.907Z,2.23
2018-04-30T11:29:32.069Z,3.43
2018-04-30T11:31:58.420Z,4.30
2018-04-30T11:34:25.589Z,11.80
2018-04-30T11:36:52.147Z,3.40
2018-04-30T11:39:18.592Z,5.57
2018-04-30T11:41:45.257Z,3.53
2018-04-30T11:44:12.903Z,3.80
2018-04-30T11:46:40.856Z,0.93
2018-04-30T11:49:07.556Z,3.53
2018-04-30T11:51:34.856Z,1.00
2018-04-30T11:54:01.371Z,2.30
2018-04-30T11:56:28.139Z,2.57
2018-04-30T11:58:54.549Z,2.23
2018-04-30T12:01:21.844Z,5.80
2018-04-30T12:03:48.183Z,2.37
2018-04-30T12:06:14.551Z,2.30
2018-04-30T12:08:40.897Z,0.80
2018-04-30T12:11:07.658Z,7.43
2018-04-30T12:13:34.881Z,3.50
2018-04-30T12:16:01.447Z,2.37
2018-04-30T12:18:28.520Z,3.50
2018-04-30T12:20:55.688Z,1.73
2018-04-30T12:23:22.228Z,1.40
2018-04-30T12:25:48.508Z,1.10
2018-04-30T12:28:16.234Z,3.77
2018-04-30T12:30:42.537Z,4.00
2018-04-30T12:33:09.130Z,2.80
2018-04-30T12:35:36.985Z,2.80
2018-04-30T12:38:03.802Z,3.47
2018-04-30T12:40:30.201Z,3.60
2018-04-30T12:42:57.385Z,5.57
2018-04-30T12:45:23.755Z,2.63
2018-04-30T12:47:50.878Z,2.00
2018-04-30T12:50:17.366Z,2.03
2018-04-30T12:52:44.436Z,4.00
2018-04-30T12:55:10.884Z,5.80
2018-04-30T12:57:37.152Z,4.90
2018-04-30T13:00:04.184Z,4.70
2018-04-30T13:02:30.628Z,5.63
2018-04-30T13:04:56.940Z,3.07
2018-04-30T13:07:23.509Z,3.07
2018-04-30T13:09:49.813Z,2.90
2018-04-30T13:12:16.193Z,2.13
2018-04-30T13:14:43.268Z,7.20
2018-04-30T13:17:10.598Z,7.07
2018-04-30T13:19:37.006Z,2.43
2018-04-30T13:22:03.454Z,4.33
2018-04-30T13:24:29.877Z,2.57
2018-04-30T13:26:56.931Z,1.70
2018-04-30T13:29:24.013Z,1.10
2018-04-30T13:31:50.396Z,2.30
2018-04-30T13:34:16.650Z,4.80
2018-04-30T13:36:43.417Z,1.60
2018-04-30T13:39:09.896Z,2.43
2018-04-30T13:41:36.192Z,0.97
2018-04-30T13:44:02.655Z,6.07
2018-04-30T13:46:29.043Z,2.20
2018-04-30T13:48:55.339Z,1.07
2018-04-30T13:51:21.629Z,0.77
2018-04-30T13:53:48.066Z,2.90
2018-04-30T13:56:14.625Z,3.17
2018-04-30T13:58:40.924Z,4.27
2018-04-30T14:01:09.373Z,2.53
2018-04-30T14:03:35.741Z,1.77
2018-04-30T14:06:02.155Z,2.13
2018-04-30T14:08:29.489Z,2.60
2018-04-30T14:10:56.540Z,3.17
2018-04-30T14:13:23.650Z,4.10
2018-04-30T14:15:50.160Z,4.20
2018-04-30T14:18:16.432Z,4.13
2018-04-30T14:20:42.782Z,1.50
2018-04-30T14:23:09.149Z,2.83
2018-04-30T14:25:35.428Z,1.57
2018-04-30T14:28:02.039Z,4.27
2018-04-30T14:30:28.431Z,2.87
2018-04-30T14:32:54.710Z,2.13
2018-04-30T14:35:21.054Z,2.43
2018-04-30T14:37:47.490Z,3.40
2018-04-30T14:40:14.006Z,2.33
2018-04-30T14:42:41.244Z,2.83
2018-04-30T14:45:07.498Z,5.27
2018-04-30T14:47:34.693Z,2.30
2018-04-30T14:50:01.000Z,3.40
2018-04-30T14:52:27.327Z,2.60
2018-04-30T14:54:53.610Z,0.80
2018-04-30T14:57:19.908Z,3.30
2018-04-30T14:59:46.215Z,1.60
2018-04-30T15:02:12.489Z,1.53
2018-04-30T15:04:38.834Z,3.53
2018-04-30T15:07:05.096Z,3.17
2018-04-30T15:09:31.424Z,2.90
2018-04-30T15:11:58.115Z,1.43
2018-04-30T15:14:24.433Z,3.77
2018-04-30T15:16:51.538Z,4.43
2018-04-30T15:19:18.079Z,2.27
2018-04-30T15:21:44.625Z,3.20
2018-04-30T15:24:11.964Z,2.00
2018-04-30T15:26:38.467Z,0.93
2018-04-30T15:29:04.831Z,1.17
2018-04-30T15:31:31.857Z,2.73
2018-04-30T15:33:58.102Z,3.50
2018-04-30T15:36:24.396Z,2.23
2018-04-30T15:38:51.571Z,4.43
2018-04-30T15:41:18.619Z,2.77
2018-04-30T15:43:44.938Z,2.53
2018-04-30T15:46:11.252Z,2.00
2018-04-30T15:48:37.640Z,3.07
2018-04-30T15:51:03.947Z,1.43
2018-04-30T15:53:30.317Z,2.77
2018-04-30T15:55:56.648Z,1.47
2018-04-30T15:58:23.047Z,3.17
2018-04-30T16:00:49.341Z,1.27
2018-04-30T16:03:15.697Z,3.67
2018-04-30T16:05:42.011Z,2.30
2018-04-30T16:08:08.392Z,6.27
2018-04-30T16:10:35.466Z,3.87
2018-04-30T16:13:02.529Z,2.60
2018-04-30T16:15:28.871Z,2.80
2018-04-30T16:17:55.403Z,2.33
2018-04-30T16:20:22.077Z,4.30
2018-04-30T16:22:48.423Z,5.57
2018-04-30T16:25:14.798Z,7.80
2018-04-30T16:27:41.066Z,3.03
2018-04-30T16:30:07.391Z,0.90
2018-04-30T16:32:33.683Z,4.30
2018-04-30T16:35:00.734Z,2.63
2018-04-30T16:37:27.753Z,2.00
2018-04-30T16:39:54.086Z,2.97
2018-04-30T16:42:20.591Z,0.90
2018-04-30T16:44:47.777Z,4.80
2018-04-30T16:47:14.794Z,2.60
2018-04-30T16:49:41.059Z,2.47
2018-04-30T16:52:07.342Z,4.37
2018-04-30T16:54:33.640Z,5.33
2018-04-30T16:57:00.685Z,1.40
2018-04-30T16:59:27.048Z,3.07
2018-04-30T17:01:53.394Z,1.60
2018-04-30T17:04:19.812Z,2.70
2018-04-30T17:06:46.184Z,3.97
2018-04-30T17:09:12.541Z,2.47
2018-04-30T17:11:38.851Z,3.47
2018-04-30T17:14:06.156Z,5.90
2018-04-30T17:16:32.589Z,2.27
2018-04-30T17:18:58.852Z,2.50
2018-04-30T17:21:25.199Z,3.97
2018-04-30T17:23:51.507Z,5.07
2018-04-30T17:26:17.892Z,2.80
2018-04-30T17:28:44.151Z,4.27
2018-04-30T17:31:10.450Z,6.20
2018-04-30T17:33:36.797Z,3.40
2018-04-30T17:36:03.189Z,1.73
2018-04-30T17:38:29.623Z,2.80
2018-04-30T17:40:55.933Z,3.93
2018-04-30T17:43:23.099Z,7.13
2018-04-30T17:45:49.389Z,6.33
2018-04-30T17:48:15.711Z,2.77
2018-04-30T17:50:41.977Z,6.83
2018-04-30T17:53:08.243Z,4.43
2018-04-30T17:55:34.558Z,5.07
2018-04-30T17:58:01.586Z,5.60
2018-04-30T18:00:27.893Z,5.77
2018-04-30T18:02:54.243Z,3.63
2018-04-30T18:05:20.600Z,6.63
2018-04-30T18:07:47.809Z,6.50
2018-04-30T18:10:14.156Z,8.03
2018-04-30T18:12:41.272Z,8.20
2018-04-30T18:15:08.247Z,4.63
2018-04-30T18:17:34.575Z,4.77
2018-04-30T18:20:01.719Z,8.90
2018-04-30T18:22:28.140Z,11.30
2018-04-30T18:24:54.761Z,10.27
2018-04-30T18:27:21.788Z,7.93
2018-04-30T18:29:48.113Z,9.93
2018-04-30T18:32:14.629Z,19.87
2018-04-30T18:34:40.935Z,30.63
2018-04-30T18:37:07.432Z,23.63
2018-04-30T18:39:34.453Z,11.33
2018-04-30T18:42:00.733Z,12.30
2018-04-30T18:44:27.954Z,9.07
2018-04-30T18:46:55.055Z,11.23
2018-04-30T18:49:21.354Z,10.47
2018-04-30T18:51:47.685Z,14.53
2018-04-30T18:54:13.908Z,21.23
2018-04-30T18:56:40.216Z,15.27
2018-04-30T18:59:06.609Z,9.63
2018-04-30T19:01:32.888Z,17.77
2018-04-30T19:03:59.178Z,10.67
2018-04-30T19:06:25.607Z,23.17
2018-04-30T19:08:51.927Z,17.27
2018-04-30T19:11:18.229Z,15.50
2018-04-30T19:13:44.527Z,16.83
2018-04-30T19:16:11.586Z,13.97
2018-04-30T19:18:38.566Z,10.97
2018-04-30T19:21:04.810Z,8.53
2018-04-30T19:23:31.147Z,12.37
2018-04-30T19:25:57.423Z,16.03
2018-04-30T19:28:23.819Z,16.37
2018-04-30T19:30:50.799Z,19.47
2018-04-30T19:33:17.013Z,22.93
2018-04-30T19:35:44.053Z,24.27
2018-04-30T19:38:10.302Z,26.53
2018-04-30T19:40:36.577Z,23.63
2018-04-30T19:43:02.992Z,21.57
2018-04-30T19:45:29.448Z,17.50
2018-04-30T19:47:55.885Z,22.53
2018-04-30T19:50:22.909Z,18.10
2018-04-30T19:52:49.256Z,20.23
2018-04-30T19:55:15.529Z,26.47
2018-04-30T19:57:42.519Z,23.23
2018-04-30T20:00:08.833Z,23.67
2018-04-30T20:02:35.894Z,36.87
2018-04-30T20:05:02.211Z,32.63
2018-04-30T20:07:28.459Z,25.33
2018-04-30T20:09:54.822Z,27.33
2018-04-30T20:12:21.820Z,33.40
2018-04-30T20:14:48.152Z,27.87
2018-04-30T20:17:14.508Z,26.07
2018-04-30T20:19:40.781Z,35.27
2018-04-30T20:22:07.860Z,36.67
2018-04-30T20:24:34.985Z,37.30
2018-04-30T20:27:02.034Z,44.97
2018-04-30T20:29:28.308Z,30.03
2018-04-30T20:31:54.611Z,25.43
2018-04-30T20:34:21.126Z,24.77
2018-04-30T20:36:48.184Z,25.53
2018-04-30T20:39:15.303Z,19.70
2018-04-30T20:41:41.810Z,25.80
2018-04-30T20:44:08.157Z,30.40
2018-04-30T20:46:34.622Z,32.43
2018-04-30T20:49:00.944Z,30.83
2018-04-30T20:51:27.310Z,36.13
2018-04-30T20:53:53.607Z,50.63
2018-04-30T20:56:19.905Z,20.47
2018-04-30T20:58:46.208Z,21.50
2018-04-30T21:01:12.621Z,17.73
2018-04-30T21:03:39.090Z,19.33
2018-04-30T21:06:05.397Z,11.70
2018-04-30T21:08:43.849Z,15.10
2018-04-30T21:11:10.983Z,20.77
2018-04-30T21:13:37.292Z,33.73
2018-04-30T21:16:03.644Z,31.00
2018-04-30T21:18:29.928Z,12.17
2018-04-30T21:20:56.222Z,10.43
2018-04-30T21:23:22.538Z,9.50
2018-04-30T21:25:50.078Z,10.57
2018-04-30T21:28:16.484Z,8.60
2018-04-30T21:30:42.787Z,27.17
2018-04-30T21:33:09.789Z,26.90
2018-04-30T21:35:36.108Z,26.87
2018-04-30T21:38:02.406Z,23.47
2018-04-30T21:40:28.698Z,20.33
2018-04-30T21:42:55.021Z,19.70
2018-04-30T21:45:22.031Z,22.87
2018-04-30T21:47:48.359Z,44.07
2018-04-30T21:50:14.677Z,38.87
2018-04-30T21:52:40.976Z,22.30
2018-04-30T21:55:07.285Z,12.43
2018-04-30T21:57:33.608Z,7.33
2018-04-30T22:00:00.123Z,19.20
2018-04-30T22:02:26.622Z,35.30
2018-04-30T22:04:53.667Z,20.53
2018-04-30T22:07:19.951Z,10.23
2018-04-30T22:09:46.300Z,26.00
2018-04-30T22:12:12.589Z,8.23
2018-04-30T22:14:39.086Z,14.37
2018-04-30T22:17:05.371Z,20.43
2018-04-30T22:19:31.748Z,15.93
2018-04-30T22:21:58.127Z,17.90
2018-04-30T22:24:24.387Z,14.73
2018-04-30T22:26:50.694Z,24.03
2018-04-30T22:29:16.992Z,22.30
2018-04-30T22:31:43.887Z,14.57
2018-04-30T22:34:10.243Z,11.77
2018-04-30T22:36:36.504Z,13.70
2018-04-30T22:39:03.608Z,18.60
2018-04-30T22:41:29.886Z,19.27
2018-04-30T22:43:56.187Z,16.30
2018-04-30T22:46:22.547Z,8.90
2018-04-30T22:48:48.877Z,18.43
2018-04-30T22:51:15.176Z,10.97
2018-04-30T22:53:41.467Z,8.23
2018-04-30T22:56:07.884Z,6.83
2018-04-30T22:58:34.889Z,8.47
2018-04-30T23:01:01.195Z,4.87
2018-04-30T23:03:27.513Z,8.33
2018-04-30T23:05:53.861Z,7.10
2018-04-30T23:08:20.180Z,7.33
2018-04-30T23:10:46.454Z,12.03
2018-04-30T23:13:13.451Z,9.17
2018-04-30T23:15:39.677Z,10.37
2018-04-30T23:18:05.988Z,9.07
2018-04-30T23:20:33.020Z,9.53
2018-04-30T23:22:59.336Z,10.93
2018-04-30T23:25:25.640Z,11.87
2018-04-30T23:27:52.794Z,10.57
2018-04-30T23:30:19.809Z,9.70
2018-04-30T23:32:46.186Z,15.27
2018-04-30T23:35:12.435Z,16.33
2018-04-30T23:37:38.748Z,16.57
2018-04-30T23:40:05.022Z,15.03
2018-04-30T23:42:31.321Z,9.90
2018-04-30T23:44:57.674Z,9.77
2018-04-30T23:47:24.052Z,7.63
2018-04-30T23:49:51.174Z,5.07
2018-04-30T23:52:17.523Z,5.50
2018-04-30T23:54:43.894Z,5.50
2018-04-30T23:57:10.153Z,6.83
2018-04-30T23:59:37.166Z,12.03
